Time;durP1;ratioP1;P1;durP2;ratioP2;P2;SDS_P1;SDS_P2;PMS_P1;PMS_P2;Temp;Humidity;BMP_temperature;BMP_pressure;BME280_temperature;BME280_humidity;BME280_pressure;Samples;Min_cycle;Max_cycle;Signal;HPM_P1;HPM_P2
2023/03/27 00:00:43;;;;;;;8.40;1.70;;;3.80;99.90;;;;;;5115873;28;20032;-74
2023/03/27 00:03:10;;;;;;;7.05;2.15;;;3.80;99.90;;;;;;5094000;28;20519;-74
2023/03/27 00:05:36;;;;;;;8.05;2.08;;;3.80;99.90;;;;;;5094567;28;20036;-74
2023/03/27 00:08:05;;;;;;;9.90;1.98;;;3.80;99.90;;;;;;5092493;28;20039;-74
2023/03/27 00:10:31;;;;;;;8.55;1.83;;;3.80;99.90;;;;;;5093415;28;20459;-74
2023/03/27 00:12:57;;;;;;;9.80;1.95;;;3.70;99.90;;;;;;5095413;28;20135;-74
2023/03/27 00:15:23;;;;;;;7.88;1.80;;;3.70;99.90;;;;;;5096495;28;20122;-74
2023/03/27 00:17:51;;;;;;;11.65;1.83;;;3.70;99.90;;;;;;5086890;28;20070;-74
2023/03/27 00:20:21;;;;;;;9.63;1.52;;;3.70;99.90;;;;;;5095721;28;20100;-74
2023/03/27 00:22:54;;;;;;;7.80;1.55;;;3.70;99.90;;;;;;5090880;28;20071;-74
2023/03/27 00:25:21;;;;;;;13.15;1.70;;;3.70;99.90;;;;;;5096575;28;20046;-75
2023/03/27 00:27:47;;;;;;;6.70;2.08;;;3.70;99.90;;;;;;5082484;28;20050;-74
2023/03/27 00:30:14;;;;;;;12.02;2.05;;;3.60;99.90;;;;;;5082089;28;20403;-74
2023/03/27 00:32:40;;;;;;;8.57;1.90;;;3.60;99.90;;;;;;5112898;28;20096;-74
2023/03/27 00:35:08;;;;;;;6.07;1.35;;;3.60;99.90;;;;;;5091040;28;20421;-74
2023/03/27 00:37:35;;;;;;;8.70;2.25;;;3.60;99.90;;;;;;5083919;28;20518;-74
2023/03/27 00:40:01;;;;;;;7.82;1.60;;;3.70;99.90;;;;;;5105950;28;20118;-74
2023/03/27 00:42:27;;;;;;;8.18;1.85;;;3.60;99.90;;;;;;5087298;28;20048;-74
2023/03/27 00:44:53;;;;;;;10.13;1.77;;;3.60;99.90;;;;;;5071280;28;20395;-74
2023/03/27 00:47:31;;;;;;;12.63;1.90;;;3.60;99.90;;;;;;5094629;28;20047;-74
2023/03/27 00:50:01;;;;;;;11.02;2.08;;;3.60;99.90;;;;;;5068641;28;20047;-74
2023/03/27 00:52:30;;;;;;;6.40;1.90;;;3.60;99.90;;;;;;5074012;28;20078;-75
2023/03/27 00:55:02;;;;;;;9.82;2.08;;;3.60;99.90;;;;;;5091905;28;20518;-74
2023/03/27 00:57:29;;;;;;;8.43;1.90;;;3.60;99.90;;;;;;5095722;28;20032;-74
2023/03/27 00:59:58;;;;;;;10.77;1.50;;;3.60;99.90;;;;;;5077037;28;20059;-74
2023/03/27 01:02:25;;;;;;;6.55;1.50;;;3.50;99.90;;;;;;5093337;28;20047;-74
2023/03/27 01:04:52;;;;;;;4.55;1.50;;;3.50;99.90;;;;;;5093587;28;20039;-74
2023/03/27 01:07:19;;;;;;;11.85;1.75;;;3.50;99.90;;;;;;5071951;28;20047;-74
2023/03/27 01:09:44;;;;;;;10.10;2.05;;;3.60;99.90;;;;;;5089822;28;20123;-75
2023/03/27 01:12:41;;;;;;;8.45;1.52;;;3.50;99.90;;;;;;5106864;28;20178;-74
2023/03/27 01:15:13;;;;;;;10.45;2.30;;;3.50;99.90;;;;;;5093157;28;20108;-74
2023/03/27 01:18:00;;;;;;;4.38;1.40;;;3.50;99.90;;;;;;5080443;28;20032;-74
2023/03/27 01:20:39;;;;;;;7.40;1.60;;;3.50;99.90;;;;;;5103300;28;20119;-74
2023/03/27 01:23:14;;;;;;;9.95;1.75;;;3.50;99.90;;;;;;5074992;28;20075;-74
2023/03/27 01:26:09;;;;;;;7.55;1.50;;;3.50;99.90;;;;;;5076784;28;20043;-75
2023/03/27 01:28:50;;;;;;;11.65;1.90;;;3.50;99.90;;;;;;5106885;28;20038;-74
2023/03/27 01:31:26;;;;;;;8.52;1.90;;;3.40;99.90;;;;;;5078463;28;20047;-74
2023/03/27 01:34:11;;;;;;;9.05;1.52;;;3.40;99.90;;;;;;5083438;28;20040;-75
2023/03/27 01:36:56;;;;;;;10.55;1.77;;;3.40;99.90;;;;;;5083104;28;20059;-74
2023/03/27 01:39:42;;;;;;;8.63;1.67;;;3.40;99.90;;;;;;5083103;28;20067;-75
2023/03/27 01:42:18;;;;;;;8.43;1.52;;;3.40;99.90;;;;;;5090406;28;20055;-74
2023/03/27 01:45:15;;;;;;;7.45;1.75;;;3.30;99.90;;;;;;5099333;28;20047;-75
2023/03/27 01:47:50;;;;;;;6.40;1.85;;;3.30;99.90;;;;;;5085828;28;20043;-74
2023/03/27 01:50:42;;;;;;;9.93;1.90;;;3.30;99.90;;;;;;5086431;28;20044;-74
2023/03/27 01:53:26;;;;;;;8.00;1.50;;;3.30;99.90;;;;;;5084410;28;20052;-75
2023/03/27 01:55:57;;;;;;;13.38;2.10;;;3.30;99.90;;;;;;5089333;28;20043;-74
2023/03/27 01:58:28;;;;;;;5.90;1.60;;;3.30;99.90;;;;;;5089129;28;20047;-75
2023/03/27 02:01:00;;;;;;;8.93;1.65;;;3.30;99.90;;;;;;5091253;28;20406;-74
2023/03/27 02:03:28;;;;;;;4.68;1.50;;;3.30;99.90;;;;;;5094392;28;20044;-74
2023/03/27 02:05:57;;;;;;;10.70;1.55;;;3.30;99.90;;;;;;5108900;28;20039;-75
2023/03/27 02:08:45;;;;;;;6.95;1.52;;;3.30;99.90;;;;;;5088356;28;20035;-74
2023/03/27 02:11:11;;;;;;;5.22;1.30;;;3.30;99.90;;;;;;5086373;28;20522;-74
2023/03/27 02:13:42;;;;;;;6.82;1.35;;;3.30;99.90;;;;;;5081446;28;20048;-74
2023/03/27 02:16:12;;;;;;;10.25;1.20;;;3.30;99.90;;;;;;5107841;28;20088;-74
2023/03/27 02:18:46;;;;;;;8.30;1.40;;;3.30;99.90;;;;;;5087069;28;20115;-74
2023/03/27 02:21:13;;;;;;;6.68;1.40;;;3.40;99.90;;;;;;5085688;28;20035;-75
2023/03/27 02:23:39;;;;;;;8.00;1.52;;;3.30;99.90;;;;;;5102980;28;20092;-74
2023/03/27 02:26:05;;;;;;;9.15;1.40;;;3.30;99.90;;;;;;5091939;28;20047;-74
2023/03/27 02:28:47;;;;;;;4.82;1.55;;;3.40;99.90;;;;;;5110521;28;20305;-74
2023/03/27 02:31:22;;;;;;;8.13;1.48;;;3.30;99.90;;;;;;5101660;28;20035;-74
2023/03/27 02:34:11;;;;;;;10.10;1.52;;;3.30;99.90;;;;;;5108414;28;20043;-74
2023/03/27 02:36:55;;;;;;;8.35;1.27;;;3.30;99.90;;;;;;5097455;28;20039;-74
2023/03/27 02:39:32;;;;;;;11.38;1.85;;;3.30;99.90;;;;;;5110228;28;20553;-74
2023/03/27 02:42:17;;;;;;;7.60;1.50;;;3.20;99.90;;;;;;5097378;28;20046;-74
2023/03/27 02:44:50;;;;;;;4.53;1.50;;;3.20;99.90;;;;;;5089170;28;20039;-74
2023/03/27 02:47:29;;;;;;;5.13;1.17;;;3.20;99.90;;;;;;5084455;28;20615;-74
2023/03/27 02:50:01;;;;;;;6.68;1.60;;;3.20;99.90;;;;;;5087604;28;20051;-75
2023/03/27 02:52:30;;;;;;;6.55;1.35;;;3.20;99.90;;;;;;5091399;28;20047;-75
2023/03/27 02:55:05;;;;;;;2.72;1.10;;;3.20;99.90;;;;;;5087679;28;20058;-75
2023/03/27 02:57:37;;;;;;;6.10;1.60;;;3.20;99.90;;;;;;5065411;28;20039;-75
2023/03/27 03:00:11;;;;;;;;;;;3.20;99.90;;;;;;5095437;28;20028;-75
2023/03/27 03:02:39;;;;;;;7.28;1.40;;;3.20;99.90;;;;;;5091101;28;19930;-75
2023/03/27 03:05:13;;;;;;;4.53;1.33;;;3.20;99.90;;;;;;5091788;28;20078;-75
2023/03/27 03:07:39;;;;;;;4.95;1.17;;;3.20;99.90;;;;;;5083448;28;20065;-76
2023/03/27 03:10:07;;;;;;;7.15;1.35;;;3.40;99.90;;;;;;5086086;28;20411;-77
2023/03/27 03:12:33;;;;;;;7.53;1.40;;;3.30;99.90;;;;;;5087052;28;20575;-77
2023/03/27 03:14:58;;;;;;;4.13;1.27;;;3.30;99.90;;;;;;5089747;28;20130;-78
2023/03/27 03:17:24;;;;;;;6.20;1.38;;;3.30;99.90;;;;;;5081567;28;20071;-76
2023/03/27 03:19:50;;;;;;;12.20;1.60;;;3.40;99.90;;;;;;5081916;28;20032;-76
2023/03/27 03:22:15;;;;;;;4.85;1.20;;;3.30;99.90;;;;;;5088698;28;20048;-76
2023/03/27 03:24:42;;;;;;;6.28;1.30;;;3.30;99.90;;;;;;5087062;28;20035;-79
2023/03/27 03:27:08;;;;;;;6.88;1.40;;;3.30;99.90;;;;;;5080972;28;20035;-76
2023/03/27 03:29:36;;;;;;;5.60;1.40;;;3.30;99.90;;;;;;5104880;28;20449;-76
2023/03/27 03:32:06;;;;;;;5.50;1.33;;;3.40;99.90;;;;;;5089722;28;20086;-76
2023/03/27 03:34:35;;;;;;;6.53;1.33;;;3.30;99.90;;;;;;5107123;28;20109;-77
2023/03/27 03:37:00;;;;;;;4.68;1.13;;;3.30;99.90;;;;;;5105492;28;20036;-76
2023/03/27 03:39:26;;;;;;;3.70;1.25;;;3.20;99.90;;;;;;5107883;28;20173;-77
2023/03/27 03:41:52;;;;;;;6.40;1.50;;;3.50;99.90;;;;;;5071723;28;20073;-77
2023/03/27 03:44:18;;;;;;;5.82;1.50;;;3.20;99.90;;;;;;5081986;28;20754;-77
2023/03/27 03:46:43;;;;;;;5.82;1.20;;;3.20;99.90;;;;;;5091450;28;20131;-77
2023/03/27 03:49:09;;;;;;;8.27;1.45;;;3.30;99.90;;;;;;5067602;28;20661;-77
2023/03/27 03:51:35;;;;;;;5.10;1.45;;;3.30;99.90;;;;;;5089373;28;20513;-76
2023/03/27 03:54:04;;;;;;;6.75;1.38;;;3.30;99.90;;;;;;5111185;28;20059;-76
2023/03/27 03:56:30;;;;;;;7.03;1.38;;;3.30;99.90;;;;;;5090879;28;20042;-76
2023/03/27 03:58:56;;;;;;;7.82;1.33;;;3.30;99.90;;;;;;5100362;28;20036;-81
2023/03/27 04:01:22;;;;;;;10.38;1.75;;;3.30;99.90;;;;;;5069131;28;20067;-76
2023/03/27 04:03:49;;;;;;;5.75;1.52;;;3.30;99.90;;;;;;5075524;28;20631;-76
2023/03/27 04:06:20;;;;;;;6.32;1.25;;;3.20;99.90;;;;;;5089000;28;20119;-77
2023/03/27 04:08:46;;;;;;;6.35;1.45;;;3.20;99.90;;;;;;5073767;28;20038;-77
2023/03/27 04:11:11;;;;;;;2.95;1.10;;;3.20;99.90;;;;;;5081269;28;20044;-77
2023/03/27 04:13:37;;;;;;;4.97;1.17;;;3.20;99.90;;;;;;5099683;28;20028;-77
2023/03/27 04:16:03;;;;;;;5.20;1.30;;;3.20;99.90;;;;;;5090973;28;20032;-78
2023/03/27 04:18:31;;;;;;;6.40;1.40;;;2.80;99.90;;;;;;5062928;28;20035;-78
2023/03/27 04:21:00;;;;;;;6.65;1.55;;;3.20;99.90;;;;;;5064212;28;20519;-80
2023/03/27 04:23:32;;;;;;;8.07;1.40;;;3.10;99.90;;;;;;5086309;28;20040;-78
2023/03/27 04:25:58;;;;;;;;;;;3.10;99.90;;;;;;5076130;28;20043;-78
2023/03/27 04:28:25;;;;;;;3.80;1.10;;;3.10;99.90;;;;;;5081818;28;19920;-79
2023/03/27 04:30:51;;;;;;;6.70;1.20;;;3.10;99.90;;;;;;5086770;28;20067;-79
2023/03/27 04:33:17;;;;;;;3.90;1.10;;;3.10;99.90;;;;;;5105977;28;20044;-79
2023/03/27 04:35:46;;;;;;;6.20;1.60;;;3.00;99.90;;;;;;5071544;28;20032;-79
2023/03/27 04:38:12;;;;;;;9.20;1.45;;;3.00;99.90;;;;;;5088346;28;20039;-78
2023/03/27 04:40:39;;;;;;;7.43;1.52;;;3.20;99.90;;;;;;5095273;28;20031;-79
2023/03/27 04:43:04;;;;;;;3.58;1.50;;;3.00;99.90;;;;;;5077810;28;20055;-78
2023/03/27 04:45:31;;;;;;;9.43;1.40;;;3.00;99.90;;;;;;5073281;28;20040;-79
2023/03/27 04:47:57;;;;;;;6.65;1.48;;;3.00;99.90;;;;;;5091530;28;20122;-78
2023/03/27 04:50:23;;;;;;;6.95;1.52;;;2.90;99.90;;;;;;5089560;28;20172;-78
2023/03/27 04:52:50;;;;;;;6.60;1.48;;;3.00;99.90;;;;;;5096030;28;20067;-78
2023/03/27 04:55:17;;;;;;;6.57;1.40;;;2.90;99.90;;;;;;5093410;28;20118;-78
2023/03/27 04:57:46;;;;;;;6.05;1.55;;;2.90;99.90;;;;;;5096219;28;20047;-78
2023/03/27 05:00:17;;;;;;;4.25;1.40;;;2.80;99.90;;;;;;5090238;28;20115;-78
2023/03/27 05:02:44;;;;;;;5.18;1.30;;;2.80;99.90;;;;;;5092141;28;20165;-77
2023/03/27 05:05:09;;;;;;;3.67;1.40;;;2.80;99.90;;;;;;5083104;28;20057;-78
2023/03/27 05:07:35;;;;;;;6.50;1.50;;;2.80;99.90;;;;;;5095304;28;20043;-77
2023/03/27 05:10:01;;;;;;;5.80;1.55;;;2.70;99.90;;;;;;5095653;28;20568;-78
2023/03/27 05:12:27;;;;;;;10.02;1.52;;;2.70;99.90;;;;;;5087655;28;20523;-78
2023/03/27 05:14:53;;;;;;;6.38;2.05;;;2.80;99.90;;;;;;5082889;28;20124;-78
2023/03/27 05:17:19;;;;;;;6.65;1.48;;;2.80;99.90;;;;;;5103856;27;20043;-78
2023/03/27 05:19:45;;;;;;;6.20;1.60;;;2.80;99.90;;;;;;5089042;28;20047;-78
2023/03/27 05:22:12;;;;;;;6.18;1.60;;;2.70;99.90;;;;;;5089383;28;20039;-78
2023/03/27 05:24:38;;;;;;;5.43;1.63;;;2.70;99.90;;;;;;5112463;28;20035;-78
2023/03/27 05:27:04;;;;;;;3.97;1.40;;;2.70;99.90;;;;;;5093058;28;20139;-78
2023/03/27 05:29:30;;;;;;;6.07;1.85;;;2.70;99.90;;;;;;5083085;28;20587;-78
2023/03/27 05:31:55;;;;;;;5.03;1.40;;;2.70;99.90;;;;;;5088730;28;20044;-78
2023/03/27 05:34:21;;;;;;;4.85;1.42;;;2.70;99.90;;;;;;5088720;28;20036;-78
2023/03/27 05:36:48;;;;;;;5.50;1.40;;;2.70;99.90;;;;;;5086118;28;20044;-79
2023/03/27 05:39:14;;;;;;;5.88;1.45;;;2.60;99.90;;;;;;5087208;28;20459;-78
2023/03/27 05:41:40;;;;;;;4.68;1.33;;;2.60;99.90;;;;;;5092971;28;20079;-77
2023/03/27 05:44:06;;;;;;;7.10;1.70;;;2.60;99.90;;;;;;5085294;28;20075;-77
2023/03/27 05:46:31;;;;;;;5.28;1.80;;;2.60;99.90;;;;;;5081249;28;20032;-77
2023/03/27 05:48:58;;;;;;;5.28;1.60;;;2.60;99.90;;;;;;5084962;28;20085;-78
2023/03/27 05:51:24;;;;;;;5.90;1.77;;;2.60;99.90;;;;;;5085376;28;20040;-78
2023/03/27 05:53:50;;;;;;;7.78;1.73;;;2.70;99.90;;;;;;5083512;28;20051;-78
2023/03/27 05:56:16;;;;;;;10.30;2.00;;;2.70;99.90;;;;;;5094442;28;20043;-78
2023/03/27 05:58:41;;;;;;;7.75;1.90;;;2.70;99.90;;;;;;5077645;28;20031;-78
2023/03/27 06:01:09;;;;;;;7.97;1.98;;;2.70;99.90;;;;;;5089218;28;20040;-77
2023/03/27 06:03:37;;;;;;;10.80;2.35;;;2.80;99.90;;;;;;5086327;28;20044;-78
2023/03/27 06:06:07;;;;;;;12.25;2.05;;;2.70;99.90;;;;;;5093593;28;20032;-78
2023/03/27 06:08:34;;;;;;;15.00;2.05;;;2.70;99.90;;;;;;5077894;28;20047;-77
2023/03/27 06:10:59;;;;;;;7.70;1.77;;;2.70;99.90;;;;;;5082579;28;20126;-76
2023/03/27 06:13:25;;;;;;;6.30;1.40;;;2.70;99.90;;;;;;5112898;28;20382;-76
2023/03/27 06:15:53;;;;;;;8.07;2.03;;;2.70;99.90;;;;;;5083983;28;20038;-76
2023/03/27 06:18:18;;;;;;;10.57;1.85;;;2.70;99.90;;;;;;5105470;28;20071;-76
2023/03/27 06:20:44;;;;;;;5.60;1.73;;;2.70;99.90;;;;;;5100446;28;20066;-78
2023/03/27 06:23:10;;;;;;;7.32;2.10;;;2.70;99.90;;;;;;5104100;28;20174;-76
2023/03/27 06:25:37;;;;;;;10.70;2.15;;;2.80;99.90;;;;;;5097944;28;20479;-76
2023/03/27 06:28:08;;;;;;;6.80;1.92;;;2.80;99.90;;;;;;5105924;28;20434;-76
2023/03/27 06:30:36;;;;;;;9.38;2.75;;;2.70;99.90;;;;;;5081082;28;20376;-77
2023/03/27 06:33:02;;;;;;;8.60;1.98;;;2.80;99.90;;;;;;5088020;28;20122;-76
2023/03/27 06:35:31;;;;;;;8.45;2.40;;;2.80;99.90;;;;;;5084862;28;20131;-76
2023/03/27 06:38:01;;;;;;;5.78;1.42;;;2.90;99.90;;;;;;5089464;28;20048;-76
2023/03/27 06:40:28;;;;;;;9.48;2.05;;;2.90;99.90;;;;;;5076582;28;20131;-76
2023/03/27 06:43:01;;;;;;;8.52;1.80;;;2.90;99.90;;;;;;5108222;28;20035;-76
2023/03/27 06:45:42;;;;;;;7.93;1.58;;;3.00;99.90;;;;;;5097581;28;20077;-76
2023/03/27 06:48:09;;;;;;;10.07;1.92;;;3.00;99.90;;;;;;5094909;28;20039;-76
2023/03/27 06:50:35;;;;;;;7.72;1.67;;;3.00;99.90;;;;;;5089016;28;20396;-79
2023/03/27 06:53:01;;;;;;;10.13;1.80;;;3.00;99.90;;;;;;5080535;28;20317;-77
2023/03/27 06:55:28;;;;;;;6.75;1.70;;;3.10;99.90;;;;;;5086328;28;20301;-76
2023/03/27 06:58:00;;;;;;;6.68;1.70;;;3.30;99.90;;;;;;5091272;28;20063;-76
2023/03/27 07:00:29;;;;;;;10.75;1.60;;;3.10;99.90;;;;;;5101783;28;20043;-77
2023/03/27 07:02:57;;;;;;;6.85;1.75;;;3.10;99.90;;;;;;5061350;28;20543;-76
2023/03/27 07:05:25;;;;;;;8.38;1.40;;;3.20;99.90;;;;;;5092714;28;20032;-76
2023/03/27 07:07:51;;;;;;;6.68;1.40;;;3.20;99.90;;;;;;5083929;28;20035;-75
2023/03/27 07:10:17;;;;;;;6.05;1.88;;;3.20;99.90;;;;;;5100139;28;20492;-77
2023/03/27 07:12:47;;;;;;;11.50;1.70;;;3.20;99.90;;;;;;5087248;28;20493;-77
2023/03/27 07:15:14;;;;;;;6.93;1.48;;;3.20;99.90;;;;;;5087469;28;20043;-75
2023/03/27 07:17:42;;;;;;;9.35;1.80;;;3.30;99.90;;;;;;5080875;28;20541;-78
2023/03/27 07:20:09;;;;;;;6.38;1.55;;;3.30;99.90;;;;;;5081308;28;20044;-76
2023/03/27 07:22:35;;;;;;;10.27;1.95;;;3.30;99.90;;;;;;5086412;28;20032;-76
2023/03/27 07:25:02;;;;;;;7.45;1.40;;;3.40;99.90;;;;;;5093400;28;20039;-77
2023/03/27 07:27:27;;;;;;;6.28;1.60;;;3.40;99.90;;;;;;5092917;28;20066;-76
2023/03/27 07:29:53;;;;;;;6.93;1.45;;;3.40;99.90;;;;;;5070137;28;20066;-76
2023/03/27 07:32:18;;;;;;;6.90;1.50;;;3.50;99.90;;;;;;5097275;28;20524;-77
2023/03/27 07:34:45;;;;;;;5.85;1.40;;;3.50;99.90;;;;;;5085555;28;20054;-78
2023/03/27 07:37:10;;;;;;;6.72;1.60;;;3.60;99.90;;;;;;5104704;28;20043;-78
2023/03/27 07:39:36;;;;;;;5.38;1.25;;;3.60;99.90;;;;;;5102684;28;20043;-76
2023/03/27 07:42:01;;;;;;;4.60;1.60;;;3.60;99.90;;;;;;5080552;28;20426;-76
2023/03/27 07:44:27;;;;;;;4.82;0.98;;;3.90;99.90;;;;;;5081510;28;20458;-76
2023/03/27 07:46:53;;;;;;;5.90;1.27;;;3.80;99.90;;;;;;5083477;28;20376;-78
2023/03/27 07:49:18;;;;;;;9.10;1.40;;;3.80;99.90;;;;;;5088289;28;20056;-79
2023/03/27 07:51:45;;;;;;;7.78;1.42;;;4.00;99.90;;;;;;5082071;28;20407;-77
2023/03/27 07:54:12;;;;;;;12.15;2.35;;;4.10;99.90;;;;;;5082086;28;20040;-76
2023/03/27 07:56:38;;;;;;;9.73;1.40;;;4.00;99.90;;;;;;5078690;28;20040;-76
2023/03/27 07:59:05;;;;;;;7.95;1.40;;;4.10;99.90;;;;;;5076148;28;20052;-76
2023/03/27 08:01:31;;;;;;;5.55;1.23;;;4.10;99.90;;;;;;5099606;28;20072;-76
2023/03/27 08:03:57;;;;;;;7.05;1.52;;;3.60;99.90;;;;;;5101801;28;20085;-76
2023/03/27 08:06:22;;;;;;;7.60;1.20;;;4.20;99.90;;;;;;5096053;28;20034;-76
2023/03/27 08:08:49;;;;;;;6.43;1.50;;;4.30;99.90;;;;;;5094061;28;20551;-76
2023/03/27 08:11:16;;;;;;;11.60;1.30;;;4.30;99.90;;;;;;5082932;28;20423;-79
2023/03/27 08:13:41;;;;;;;11.98;1.42;;;4.40;99.90;;;;;;5090539;28;20486;-77
2023/03/27 08:16:11;;;;;;;5.55;1.65;;;4.50;99.90;;;;;;5081546;28;20152;-76
2023/03/27 08:18:37;;;;;;;6.25;1.10;;;4.60;99.90;;;;;;5093497;28;20042;-76
2023/03/27 08:21:05;;;;;;;4.28;0.90;;;4.70;99.90;;;;;;5096267;28;20043;-76
2023/03/27 08:23:32;;;;;;;6.03;1.00;;;4.80;99.90;;;;;;5089276;28;20032;-76
2023/03/27 08:25:59;;;;;;;5.25;1.23;;;4.90;99.90;;;;;;5087590;28;20415;-76
2023/03/27 08:28:29;;;;;;;5.93;1.33;;;4.80;99.90;;;;;;5094216;28;20028;-76
2023/03/27 08:30:56;;;;;;;9.13;1.40;;;4.90;99.90;;;;;;5108641;28;20122;-78
2023/03/27 08:33:22;;;;;;;7.57;1.40;;;4.80;99.90;;;;;;5088341;28;20036;-76
2023/03/27 08:35:49;;;;;;;6.28;1.40;;;4.80;99.90;;;;;;5109296;28;20486;-75
2023/03/27 08:38:14;;;;;;;6.88;1.05;;;4.80;99.90;;;;;;5077314;28;20053;-76
2023/03/27 08:40:47;;;;;;;7.20;1.58;;;4.80;99.90;;;;;;5095756;28;20403;-76
2023/03/27 08:43:17;;;;;;;3.28;1.13;;;4.80;99.90;;;;;;5070100;28;20040;-76
2023/03/27 08:45:54;;;;;;;12.18;1.67;;;4.90;99.90;;;;;;5085835;28;20035;-76
2023/03/27 08:48:25;;;;;;;5.97;1.13;;;4.90;99.90;;;;;;5070932;28;20039;-76
2023/03/27 08:50:57;;;;;;;4.07;1.08;;;5.00;99.90;;;;;;5114669;28;20089;-76
2023/03/27 08:53:41;;;;;;;8.38;1.20;;;5.00;99.90;;;;;;5077050;28;20044;-76
2023/03/27 08:56:12;;;;;;;9.07;1.40;;;5.10;99.90;;;;;;5087869;28;20096;-77
2023/03/27 08:58:37;;;;;;;6.25;1.50;;;5.20;99.90;;;;;;5096021;28;20039;-77
2023/03/27 09:01:39;;;;;;;6.72;1.35;;;5.30;99.90;;;;;;5085617;28;20089;-76
2023/03/27 09:04:22;;;;;;;7.93;1.30;;;5.40;99.90;;;;;;5066925;28;20048;-75
2023/03/27 09:07:05;;;;;;;9.85;1.38;;;5.50;99.90;;;;;;5075277;28;20118;-76
2023/03/27 09:09:58;;;;;;;11.70;1.67;;;5.60;99.90;;;;;;5119612;22;20267;-77
2023/03/27 09:12:49;;;;;;;9.32;1.83;;;5.70;99.90;;;;;;5094757;27;20035;-78
2023/03/27 09:15:26;;;;;;;8.43;1.80;;;5.40;99.90;;;;;;5093018;28;20142;-78
2023/03/27 09:18:10;;;;;;;5.47;1.30;;;5.70;99.90;;;;;;5095017;28;20053;-79
2023/03/27 09:20:46;;;;;;;7.75;1.10;;;5.60;99.90;;;;;;5083268;28;20024;-78
2023/03/27 09:23:20;;;;;;;3.58;1.10;;;5.50;99.90;;;;;;5094943;27;20046;-77
2023/03/27 09:25:54;;;;;;;7.50;1.33;;;5.40;99.90;;;;;;5111990;28;20114;-77
2023/03/27 09:28:24;;;;;;;6.55;1.25;;;5.20;99.90;;;;;;5111856;27;20491;-77
2023/03/27 09:30:50;;;;;;;4.18;1.10;;;5.00;99.90;;;;;;5098744;27;20053;-77
2023/03/27 09:33:16;;;;;;;4.07;0.80;;;4.80;99.90;;;;;;5096242;27;20130;-78
2023/03/27 09:35:42;;;;;;;2.05;0.70;;;4.90;99.90;;;;;;5111870;28;20110;-78
2023/03/27 09:38:22;;;;;;;6.40;1.10;;;4.90;99.90;;;;;;5085860;27;20055;-78
2023/03/27 09:41:13;;;;;;;4.20;0.90;;;5.00;99.90;;;;;;5083604;27;20027;-77
2023/03/27 09:43:52;;;;;;;4.72;1.10;;;5.20;99.90;;;;;;5083084;27;20468;-78
2023/03/27 09:46:20;;;;;;;4.40;1.23;;;5.40;99.90;;;;;;5088499;27;20035;-78
2023/03/27 09:48:55;;;;;;;6.47;1.02;;;6.10;99.90;;;;;;5093800;27;20028;-78
2023/03/27 09:51:36;;;;;;;4.18;0.90;;;5.90;99.90;;;;;;5115126;27;20035;-78
2023/03/27 09:54:03;;;;;;;5.97;1.17;;;6.10;99.90;;;;;;5086799;28;20031;-79
2023/03/27 09:56:30;;;;;;;5.82;1.20;;;6.40;99.90;;;;;;5091812;28;20044;-78
2023/03/27 09:58:57;;;;;;;5.00;1.27;;;7.90;99.90;;;;;;5094392;27;20566;-78
2023/03/27 10:01:33;;;;;;;5.13;1.02;;;6.90;99.90;;;;;;5094474;27;20415;-77
2023/03/27 10:03:59;;;;;;;4.05;1.20;;;7.10;99.90;;;;;;5097625;27;20035;-78
2023/03/27 10:06:29;;;;;;;6.57;1.27;;;7.40;99.90;;;;;;5097744;27;20027;-78
2023/03/27 10:08:59;;;;;;;4.13;1.25;;;7.50;99.90;;;;;;5085410;27;20038;-78
2023/03/27 10:11:31;;;;;;;6.82;1.42;;;7.70;99.90;;;;;;5116309;27;20499;-77
2023/03/27 10:13:59;;;;;;;5.35;1.58;;;7.90;99.90;;;;;;5112603;27;20496;-78
2023/03/27 10:16:26;;;;;;;9.00;1.33;;;8.70;99.90;;;;;;5110770;28;20035;-77
2023/03/27 10:18:56;;;;;;;6.20;1.48;;;8.00;99.90;;;;;;5128932;27;20110;-77
2023/03/27 10:21:34;;;;;;;6.88;1.50;;;8.10;99.90;;;;;;5094071;28;20040;-77
2023/03/27 10:24:34;;;;;;;9.57;1.60;;;8.20;99.90;;;;;;5083215;27;20078;-77
2023/03/27 10:27:04;;;;;;;7.82;1.55;;;8.40;99.90;;;;;;5100907;27;20127;-77
2023/03/27 10:29:36;;;;;;;6.03;1.50;;;8.50;99.90;;;;;;5090257;28;20088;-78
2023/03/27 10:32:04;;;;;;;7.03;1.50;;;8.60;99.90;;;;;;5099859;27;20051;-78
2023/03/27 10:34:54;;;;;;;8.30;2.03;;;8.90;99.90;;;;;;5100621;28;20044;-78
2023/03/27 10:37:31;;;;;;;6.82;1.70;;;9.10;99.90;;;;;;5131556;27;20117;-77
2023/03/27 10:40:01;;;;;;;9.63;1.50;;;8.80;99.90;;;;;;5088208;28;20036;-78
2023/03/27 10:42:30;;;;;;;7.40;1.45;;;8.30;99.90;;;;;;5093686;28;20043;-79
2023/03/27 10:44:56;;;;;;;5.90;1.42;;;7.90;99.90;;;;;;5128755;27;20042;-79
2023/03/27 10:47:25;;;;;;;6.25;1.65;;;7.50;99.90;;;;;;5111456;27;20494;-80
2023/03/27 10:50:05;;;;;;;4.63;1.38;;;7.20;99.90;;;;;;5132473;27;20394;-79
2023/03/27 10:52:46;;;;;;;8.73;1.50;;;7.70;99.90;;;;;;5086537;27;20089;-78
2023/03/27 10:55:21;;;;;;;9.15;1.63;;;7.50;99.90;;;;;;5105281;27;20043;-79
2023/03/27 10:57:55;;;;;;;7.38;1.60;;;7.80;99.90;;;;;;5106045;28;20384;-79
2023/03/27 11:00:42;;;;;;;3.38;1.08;;;8.10;99.90;;;;;;5105512;27;20070;-78
2023/03/27 11:03:21;;;;;;;6.28;1.10;;;8.80;99.90;;;;;;5084474;27;20091;-78
2023/03/27 11:05:52;;;;;;;5.82;1.38;;;9.60;99.90;;;;;;5108857;27;20060;-79
2023/03/27 11:08:21;;;;;;;4.03;0.93;;;9.70;99.90;;;;;;5092127;28;20407;-78
2023/03/27 11:10:48;;;;;;;5.28;1.25;;;9.80;99.90;;;;;;5112603;27;20071;-79
2023/03/27 11:13:25;;;;;;;5.22;1.35;;;8.90;99.90;;;;;;5132182;27;20035;-78
2023/03/27 11:15:59;;;;;;;5.72;1.10;;;9.10;99.90;;;;;;5088066;28;20027;-78
2023/03/27 11:18:48;;;;;;;4.57;1.10;;;9.00;99.90;;;;;;5116319;27;20027;-78
2023/03/27 11:21:21;;;;;;;4.65;1.15;;;8.90;99.90;;;;;;5129148;27;20036;-78
2023/03/27 11:23:58;;;;;;;3.30;0.73;;;8.90;99.90;;;;;;5088199;28;20111;-78
2023/03/27 11:26:39;;;;;;;2.72;0.93;;;8.70;99.90;;;;;;5112369;27;20077;-79
2023/03/27 11:29:12;;;;;;;6.63;1.48;;;9.50;99.90;;;;;;5090985;28;20119;-78
2023/03/27 11:31:50;;;;;;;4.70;1.05;;;9.20;99.90;;;;;;5125985;27;20091;-77
2023/03/27 11:34:32;;;;;;;4.50;1.15;;;9.10;99.90;;;;;;5089762;27;20432;-77
2023/03/27 11:37:04;;;;;;;;;;;9.20;99.90;;;;;;5104508;28;20043;-78
2023/03/27 11:39:52;;;;;;;4.70;1.08;;;9.60;99.90;;;;;;5091649;28;19972;-77
2023/03/27 11:42:23;;;;;;;3.25;0.98;;;9.70;99.90;;;;;;5120287;28;20051;-77
2023/03/27 11:44:50;;;;;;;2.85;0.80;;;9.80;99.90;;;;;;5112539;28;20038;-78
2023/03/27 11:47:37;;;;;;;3.63;0.90;;;10.30;99.90;;;;;;5108635;28;20509;-78
2023/03/27 11:50:33;;;;;;;6.18;1.20;;;9.70;99.90;;;;;;5096275;28;20043;-78
2023/03/27 11:53:13;;;;;;;3.22;1.13;;;9.10;99.90;;;;;;5127075;28;20430;-79
2023/03/27 11:56:22;;;;;;;3.25;0.90;;;8.30;99.90;;;;;;5109084;28;20445;-78
2023/03/27 11:59:03;;;;;;;2.80;0.77;;;7.80;99.90;;;;;;5127216;28;20043;-78
2023/03/27 12:01:28;;;;;;;1.25;0.50;;;7.50;99.90;;;;;;5126211;28;20038;-78
2023/03/27 12:04:19;;;;;;;2.17;0.73;;;7.50;99.90;;;;;;5091799;28;20053;-77
2023/03/27 12:07:12;;;;;;;4.72;1.00;;;7.90;99.90;;;;;;5120784;28;20628;-77
2023/03/27 12:09:41;;;;;;;;;;;8.10;99.90;;;;;;5087507;28;20100;-77
2023/03/27 12:12:12;;;;;;;3.30;0.90;;;8.40;99.90;;;;;;5094658;28;19919;-77
2023/03/27 12:14:48;;;;;;;2.45;0.90;;;8.90;99.90;;;;;;5107641;28;20039;-78
2023/03/27 12:17:52;;;;;;;5.35;1.10;;;8.70;99.90;;;;;;5130871;28;20034;-80
2023/03/27 12:20:21;;;;;;;4.55;1.00;;;8.90;99.90;;;;;;5088205;28;20039;-78
2023/03/27 12:23:11;;;;;;;4.90;0.93;;;9.00;99.90;;;;;;5084891;28;20130;-78
2023/03/27 12:26:08;;;;;;;2.03;0.90;;;9.70;99.90;;;;;;5092073;28;20467;-78
2023/03/27 12:28:56;;;;;;;7.20;1.20;;;9.20;99.90;;;;;;5091509;28;20106;-77
2023/03/27 12:31:33;;;;;;;4.15;1.10;;;9.30;99.90;;;;;;5089369;28;20043;-77
2023/03/27 12:34:20;;;;;;;7.43;1.40;;;9.50;99.90;;;;;;5112359;28;20035;-77
2023/03/27 12:36:47;;;;;;;5.50;1.52;;;9.40;99.90;;;;;;5104141;28;20059;-77
2023/03/27 12:39:23;;;;;;;5.40;0.82;;;9.10;99.90;;;;;;5087849;28;20123;-77
2023/03/27 12:41:49;;;;;;;6.18;1.08;;;8.70;99.90;;;;;;5131943;28;20047;-78
2023/03/27 12:44:18;;;;;;;4.00;1.00;;;8.60;99.90;;;;;;5095339;28;20039;-78
2023/03/27 12:47:21;;;;;;;3.60;0.85;;;8.60;99.90;;;;;;5099008;28;20548;-77
2023/03/27 12:49:56;;;;;;;3.60;0.95;;;8.70;99.90;;;;;;5106489;28;20097;-77
2023/03/27 12:52:24;;;;;;;3.08;0.77;;;8.70;99.90;;;;;;5103170;28;20368;-77
2023/03/27 12:55:27;;;;;;;4.03;1.00;;;8.90;99.90;;;;;;5097804;27;20069;-77
2023/03/27 12:57:52;;;;;;;8.40;1.30;;;9.10;99.90;;;;;;5112533;27;20130;-77
2023/03/27 13:00:22;;;;;;;4.85;1.10;;;9.20;99.90;;;;;;5104882;27;20507;-77
2023/03/27 13:03:01;;;;;;;5.65;1.30;;;9.30;99.90;;;;;;5127398;27;20498;-77
2023/03/27 13:05:34;;;;;;;6.25;1.42;;;9.50;99.90;;;;;;5103865;27;20390;-77
2023/03/27 13:08:26;;;;;;;6.15;1.38;;;9.50;99.90;;;;;;5083640;28;20044;-77
2023/03/27 13:11:18;;;;;;;7.28;1.30;;;9.40;99.90;;;;;;5093573;27;20066;-77
2023/03/27 13:14:11;;;;;;;6.32;1.17;;;9.40;99.90;;;;;;5104084;27;20050;-78
2023/03/27 13:17:09;;;;;;;4.85;1.20;;;9.50;99.90;;;;;;5124061;27;20036;-77
2023/03/27 13:19:49;;;;;;;6.32;1.50;;;9.60;99.90;;;;;;5123856;27;20031;-77
2023/03/27 13:22:20;;;;;;;7.53;1.50;;;9.60;99.90;;;;;;5125235;27;20039;-77